createdAt,value
2023-02-26T00:01:51.560Z,28.10
2023-02-26T00:04:20.742Z,24.80
2023-02-26T00:06:56.905Z,26.50
2023-02-26T00:09:27.927Z,25.40
2023-02-26T00:11:57.227Z,26.30
2023-02-26T00:14:31.852Z,27.20
2023-02-26T00:17:35.367Z,26.10
2023-02-26T00:20:12.148Z,27.60
2023-02-26T00:22:42.564Z,26.20
2023-02-26T00:25:11.337Z,25.30
2023-02-26T00:27:40.847Z,26.70
2023-02-26T00:30:10.481Z,27.20
2023-02-26T00:32:40.256Z,26.20
2023-02-26T00:35:11.797Z,27.90
2023-02-26T00:37:56.280Z,26.30
2023-02-26T00:40:46.086Z,27.20
2023-02-26T00:43:24.344Z,27.20
2023-02-26T00:46:25.994Z,26.80
2023-02-26T00:49:11.045Z,26.80
2023-02-26T00:51:50.839Z,26.30
2023-02-26T00:54:26.496Z,25.20
2023-02-26T00:56:56.343Z,28.60
2023-02-26T00:59:25.516Z,25.20
2023-02-26T01:01:54.395Z,26.10
2023-02-26T01:04:24.424Z,26.70
2023-02-26T01:06:55.720Z,27.10
2023-02-26T01:09:28.757Z,27.10
2023-02-26T01:12:01.771Z,28.60
2023-02-26T01:14:32.596Z,28.50
2023-02-26T01:17:40.081Z,27.20
2023-02-26T01:20:10.493Z,27.40
2023-02-26T01:23:02.141Z,28.80
2023-02-26T01:25:39.806Z,21.30
2023-02-26T01:28:09.203Z,27.20
2023-02-26T01:30:39.647Z,28.00
2023-02-26T01:33:30.744Z,28.90
2023-02-26T01:36:23.024Z,27.50
2023-02-26T01:39:10.699Z,28.60
2023-02-26T01:41:58.958Z,27.90
2023-02-26T01:44:32.552Z,28.20
2023-02-26T01:47:01.865Z,28.40
2023-02-26T01:49:32.085Z,28.60
2023-02-26T01:52:02.710Z,27.00
2023-02-26T01:54:34.091Z,28.00
2023-02-26T01:57:08.770Z,26.10
2023-02-26T01:59:44.006Z,26.90
2023-02-26T02:02:13.785Z,26.50
2023-02-26T02:04:42.727Z,23.50
2023-02-26T02:07:11.716Z,27.40
2023-02-26T02:09:40.415Z,26.50
2023-02-26T02:12:31.162Z,25.10
2023-02-26T02:15:03.285Z,23.40
2023-02-26T02:17:58.078Z,24.70
2023-02-26T02:20:45.692Z,26.60
2023-02-26T02:23:23.107Z,26.00
2023-02-26T02:26:49.927Z,24.30
2023-02-26T02:29:42.078Z,24.30
2023-02-26T02:32:12.558Z,24.30
2023-02-26T02:34:58.823Z,26.60
2023-02-26T02:37:48.796Z,26.00
2023-02-26T02:40:30.217Z,23.70
2023-02-26T02:43:00.173Z,24.80
2023-02-26T02:45:48.289Z,26.00
2023-02-26T02:48:29.767Z,24.30
2023-02-26T02:51:19.188Z,24.30
2023-02-26T02:53:55.022Z,25.00
2023-02-26T02:56:26.309Z,24.70
2023-02-26T02:59:23.436Z,26.40
2023-02-26T03:02:21.553Z,26.20
2023-02-26T03:04:50.282Z,26.60
2023-02-26T03:07:19.084Z,26.70
2023-02-26T03:09:53.608Z,29.00
2023-02-26T03:12:22.587Z,26.10
2023-02-26T03:14:55.791Z,24.30
2023-02-26T03:17:52.216Z,25.30
2023-02-26T03:20:23.666Z,25.00
2023-02-26T03:22:56.168Z,24.80
2023-02-26T03:25:42.853Z,24.50
2023-02-26T03:28:27.750Z,25.00
2023-02-26T03:31:07.294Z,25.00
2023-02-26T03:33:50.992Z,26.40
2023-02-26T03:36:30.024Z,29.20
2023-02-26T03:39:12.626Z,30.30
2023-02-26T03:42:10.611Z,31.00
2023-02-26T03:44:54.968Z,27.70
2023-02-26T03:47:25.694Z,30.80
2023-02-26T03:49:59.576Z,27.70
2023-02-26T03:52:30.142Z,28.50
2023-02-26T03:55:28.003Z,28.10
2023-02-26T03:58:09.700Z,28.10
2023-02-26T04:01:18.967Z,28.20
2023-02-26T04:03:54.733Z,26.80
2023-02-26T04:06:25.113Z,26.60
2023-02-26T04:08:55.324Z,24.80
2023-02-26T04:11:26.063Z,26.30
2023-02-26T04:13:55.058Z,28.40
2023-02-26T04:16:25.093Z,29.10
2023-02-26T04:18:56.108Z,30.40
2023-02-26T04:21:25.067Z,27.90
2023-02-26T04:23:54.336Z,25.70
2023-02-26T04:26:23.702Z,28.90
2023-02-26T04:28:53.200Z,29.30
2023-02-26T04:31:22.419Z,26.50
2023-02-26T04:33:51.800Z,25.40
2023-02-26T04:36:20.394Z,25.80
2023-02-26T04:38:49.997Z,23.90
2023-02-26T04:41:18.774Z,24.60
2023-02-26T04:43:49.098Z,24.40
2023-02-26T04:46:24.698Z,23.90
2023-02-26T04:48:54.010Z,24.10
2023-02-26T04:51:26.463Z,23.80
2023-02-26T04:53:55.721Z,23.50
2023-02-26T04:56:25.967Z,22.90
2023-02-26T04:58:56.160Z,26.00
2023-02-26T05:01:28.768Z,23.60
2023-02-26T05:03:58.036Z,26.70
2023-02-26T05:06:27.304Z,24.90
2023-02-26T05:08:57.154Z,28.70
2023-02-26T05:11:26.129Z,28.80
2023-02-26T05:13:55.757Z,26.80
2023-02-26T05:16:24.833Z,28.40
2023-02-26T05:18:54.965Z,26.00
2023-02-26T05:21:26.135Z,27.40
2023-02-26T05:23:55.515Z,25.70
2023-02-26T05:26:24.775Z,24.70
2023-02-26T05:28:56.989Z,25.50
2023-02-26T05:31:27.289Z,23.60
2023-02-26T05:33:56.714Z,24.90
2023-02-26T05:36:25.826Z,25.50
2023-02-26T05:38:54.803Z,25.30
2023-02-26T05:41:23.794Z,27.20
2023-02-26T05:43:52.541Z,34.40
2023-02-26T05:46:21.715Z,32.20
2023-02-26T05:48:52.115Z,28.20
2023-02-26T05:51:21.704Z,31.40
2023-02-26T05:53:50.401Z,24.30
2023-02-26T05:56:19.282Z,30.90
2023-02-26T05:58:48.448Z,27.50
2023-02-26T06:01:17.872Z,26.70
2023-02-26T06:03:46.766Z,24.50
2023-02-26T06:06:18.854Z,23.80
2023-02-26T06:08:48.333Z,28.80
2023-02-26T06:11:20.712Z,27.20
2023-02-26T06:13:49.887Z,27.60
2023-02-26T06:16:20.805Z,21.40
2023-02-26T06:18:51.570Z,27.90
2023-02-26T06:21:20.776Z,24.90
2023-02-26T06:23:49.614Z,30.00
2023-02-26T06:26:18.547Z,24.30
2023-02-26T06:28:48.878Z,21.50
2023-02-26T06:31:18.384Z,23.70
2023-02-26T06:33:48.098Z,20.60
2023-02-26T06:36:17.830Z,14.00
2023-02-26T06:38:47.219Z,14.40
2023-02-26T06:41:16.094Z,15.40
2023-02-26T06:43:44.991Z,14.10
2023-02-26T06:46:14.152Z,13.80
2023-02-26T06:48:45.225Z,14.80
2023-02-26T06:51:14.012Z,14.40
2023-02-26T06:53:42.902Z,11.50
2023-02-26T06:56:11.781Z,10.20
2023-02-26T06:58:40.691Z,7.20
2023-02-26T07:01:10.844Z,7.20
2023-02-26T07:03:39.630Z,7.30
2023-02-26T07:06:38.459Z,8.10
2023-02-26T07:08:59.848Z,6.90
2023-02-26T07:11:29.712Z,7.30
2023-02-26T07:13:58.494Z,8.40
2023-02-26T07:16:27.958Z,9.40
2023-02-26T07:18:57.353Z,8.80
2023-02-26T07:21:26.298Z,10.20
2023-02-26T07:24:01.743Z,6.20
2023-02-26T07:26:30.853Z,7.50
2023-02-26T07:29:00.034Z,7.20
2023-02-26T07:31:29.362Z,6.60
2023-02-26T07:33:58.221Z,6.60
2023-02-26T07:36:27.424Z,7.70
2023-02-26T07:38:56.722Z,8.50
2023-02-26T07:41:26.731Z,7.90
2023-02-26T07:43:56.029Z,6.50
2023-02-26T07:46:25.057Z,9.70
2023-02-26T07:48:54.216Z,8.20
2023-02-26T07:51:24.446Z,9.30
2023-02-26T07:53:57.629Z,8.10
2023-02-26T07:56:30.617Z,8.60
2023-02-26T07:58:59.672Z,8.60
2023-02-26T08:01:28.961Z,8.40
2023-02-26T08:03:57.830Z,9.20
2023-02-26T08:06:28.034Z,9.10
2023-02-26T08:09:01.926Z,9.10
2023-02-26T08:11:33.103Z,8.20
2023-02-26T08:14:02.065Z,7.40
2023-02-26T08:16:31.179Z,8.10
2023-02-26T08:19:00.070Z,8.50
2023-02-26T08:21:29.352Z,8.60
2023-02-26T08:23:58.449Z,6.00
2023-02-26T08:26:27.496Z,6.80
2023-02-26T08:28:56.665Z,5.90
2023-02-26T08:31:27.424Z,6.10
2023-02-26T08:33:56.151Z,6.70
2023-02-26T08:36:25.587Z,5.20
2023-02-26T08:38:55.270Z,5.90
2023-02-26T08:41:24.759Z,5.90
2023-02-26T08:43:55.193Z,6.20
2023-02-26T08:46:24.391Z,5.90
2023-02-26T08:48:54.000Z,5.80
2023-02-26T08:51:23.382Z,5.70
2023-02-26T08:53:52.606Z,5.20
2023-02-26T08:56:21.380Z,6.30
2023-02-26T08:58:50.490Z,6.10
2023-02-26T09:01:19.174Z,7.10
2023-02-26T09:03:48.271Z,7.20
2023-02-26T09:06:16.954Z,7.30
2023-02-26T09:08:48.000Z,7.30
2023-02-26T09:11:18.015Z,7.70
2023-02-26T09:13:46.511Z,9.20
2023-02-26T09:16:14.944Z,8.60
2023-02-26T09:18:47.138Z,8.80
2023-02-26T09:21:15.677Z,9.30
2023-02-26T09:23:45.545Z,10.30
2023-02-26T09:26:14.522Z,12.30
2023-02-26T09:28:43.173Z,8.00
2023-02-26T09:31:12.502Z,9.40
2023-02-26T09:33:41.809Z,8.60
2023-02-26T09:36:10.098Z,10.00
2023-02-26T09:38:39.000Z,9.00
2023-02-26T09:41:29.080Z,10.20
2023-02-26T09:43:57.963Z,7.80
2023-02-26T09:46:32.907Z,8.60
2023-02-26T09:49:29.172Z,8.70
2023-02-26T09:52:31.809Z,8.30
2023-02-26T09:55:10.826Z,7.60
2023-02-26T09:57:45.348Z,6.70
2023-02-26T10:00:18.144Z,6.30
2023-02-26T10:03:10.171Z,7.50
2023-02-26T10:08:33.650Z,9.30
2023-02-26T10:11:15.161Z,7.80
2023-02-26T10:13:57.197Z,10.30
2023-02-26T10:19:18.814Z,10.10
2023-02-26T10:21:53.093Z,13.70
2023-02-26T10:24:39.543Z,12.00
2023-02-26T10:27:41.162Z,8.90
2023-02-26T10:30:29.039Z,10.00
2023-02-26T10:33:28.054Z,9.60
2023-02-26T10:36:01.275Z,11.60
2023-02-26T10:38:31.398Z,9.40
2023-02-26T10:41:08.525Z,10.00
2023-02-26T10:43:42.978Z,10.40
2023-02-26T10:46:45.852Z,10.00
2023-02-26T10:49:33.610Z,9.00
2023-02-26T10:52:31.889Z,9.30
2023-02-26T10:55:14.417Z,8.40
2023-02-26T10:57:48.101Z,7.80
2023-02-26T11:00:19.286Z,7.10
2023-02-26T11:02:52.215Z,15.60
2023-02-26T11:05:30.762Z,11.00
2023-02-26T11:08:06.125Z,8.60
2023-02-26T11:10:48.907Z,8.60
2023-02-26T11:13:18.312Z,8.00
2023-02-26T11:15:49.729Z,8.30
2023-02-26T11:18:42.635Z,9.60
2023-02-26T11:21:17.779Z,7.40
2023-02-26T11:23:47.671Z,9.90
2023-02-26T11:26:17.999Z,7.50
2023-02-26T11:28:48.570Z,9.90
2023-02-26T11:31:21.339Z,15.20
2023-02-26T11:33:52.136Z,25.40
2023-02-26T11:36:22.263Z,18.40
2023-02-26T11:39:03.128Z,15.80
2023-02-26T11:44:05.530Z,13.60
2023-02-26T11:46:51.195Z,12.30
2023-02-26T11:49:23.404Z,14.00
2023-02-26T11:52:06.179Z,11.30
2023-02-26T11:54:36.611Z,8.70
2023-02-26T11:57:08.489Z,8.40
2023-02-26T11:59:38.602Z,9.00
2023-02-26T12:02:13.218Z,8.30
2023-02-26T12:04:45.241Z,7.70
2023-02-26T12:09:44.072Z,6.50
2023-02-26T12:12:21.949Z,6.60
2023-02-26T12:15:03.705Z,5.80
2023-02-26T12:20:28.986Z,6.30
2023-02-26T12:22:59.121Z,6.10
2023-02-26T12:25:32.830Z,5.80
2023-02-26T12:28:26.292Z,5.70
2023-02-26T12:30:55.400Z,5.60
2023-02-26T12:33:38.918Z,5.90
2023-02-26T12:36:23.569Z,5.80
2023-02-26T12:39:26.051Z,5.50
2023-02-26T12:42:19.924Z,6.40
2023-02-26T12:45:20.968Z,5.90
2023-02-26T12:48:10.544Z,6.30
2023-02-26T12:50:56.026Z,8.10
2023-02-26T12:53:43.040Z,7.70
2023-02-26T12:56:49.646Z,7.10
2023-02-26T12:59:42.082Z,7.60
2023-02-26T13:02:34.094Z,8.40
2023-02-26T13:05:15.382Z,9.60
2023-02-26T13:07:50.107Z,9.70
2023-02-26T13:10:28.523Z,8.20
2023-02-26T13:13:22.489Z,9.60
2023-02-26T13:16:16.406Z,7.30
2023-02-26T13:18:54.677Z,8.30
2023-02-26T13:21:26.998Z,6.20
2023-02-26T13:24:01.159Z,5.50
2023-02-26T13:26:31.689Z,6.50
2023-02-26T13:29:18.884Z,5.50
2023-02-26T13:31:56.023Z,5.00
2023-02-26T13:34:48.653Z,10.80
2023-02-26T13:37:23.342Z,10.90
2023-02-26T13:39:57.382Z,12.80
2023-02-26T13:42:59.040Z,10.00
2023-02-26T13:45:51.135Z,10.00
2023-02-26T13:48:46.169Z,8.60
2023-02-26T13:51:26.367Z,8.60
2023-02-26T13:54:00.107Z,10.80
2023-02-26T13:56:29.020Z,10.60
2023-02-26T13:59:13.536Z,10.60
2023-02-26T14:01:46.822Z,9.80
2023-02-26T14:04:25.441Z,15.50
2023-02-26T14:06:58.434Z,18.20
2023-02-26T14:09:36.068Z,16.60
2023-02-26T14:12:16.123Z,12.00
2023-02-26T14:15:12.046Z,15.80
2023-02-26T14:17:51.581Z,14.10
2023-02-26T14:20:28.470Z,13.20
2023-02-26T14:23:12.521Z,10.20
2023-02-26T14:25:47.942Z,9.40
2023-02-26T14:28:33.321Z,8.40
2023-02-26T14:31:17.011Z,6.20
2023-02-26T14:34:04.814Z,5.10
2023-02-26T14:36:44.741Z,5.50
2023-02-26T14:39:36.981Z,5.60
2023-02-26T14:42:18.778Z,5.50
2023-02-26T14:44:49.634Z,4.70
2023-02-26T14:47:18.707Z,4.10
2023-02-26T14:49:49.807Z,13.80
2023-02-26T14:52:32.771Z,15.90
2023-02-26T14:55:24.099Z,11.70
2023-02-26T14:58:09.560Z,12.20
2023-02-26T15:00:51.158Z,14.10
2023-02-26T15:03:40.325Z,21.90
2023-02-26T15:06:31.120Z,29.80
2023-02-26T15:09:10.350Z,12.10
2023-02-26T15:11:58.771Z,8.10
2023-02-26T15:14:36.109Z,10.90
2023-02-26T15:17:15.653Z,13.50
2023-02-26T15:19:59.994Z,10.80
2023-02-26T15:22:37.481Z,6.00
2023-02-26T15:25:12.392Z,6.80
2023-02-26T15:27:41.295Z,10.50
2023-02-26T15:30:14.952Z,11.10
2023-02-26T15:32:44.317Z,9.20
2023-02-26T15:35:17.569Z,7.50
2023-02-26T15:37:51.719Z,5.10
2023-02-26T15:40:22.848Z,6.20
2023-02-26T15:42:56.258Z,17.90
2023-02-26T15:45:37.729Z,14.10
2023-02-26T15:48:16.922Z,9.30
2023-02-26T15:50:47.595Z,7.40
2023-02-26T15:53:19.732Z,6.20
2023-02-26T15:55:52.131Z,11.60
2023-02-26T15:58:29.834Z,13.70
2023-02-26T16:01:02.989Z,10.60
2023-02-26T16:03:35.771Z,12.30
2023-02-26T16:06:07.078Z,10.20
2023-02-26T16:08:39.625Z,8.00
2023-02-26T16:11:08.821Z,8.00
2023-02-26T16:13:39.045Z,12.20
2023-02-26T16:16:13.097Z,29.20
2023-02-26T16:18:42.794Z,22.70
2023-02-26T16:21:31.619Z,19.90
2023-02-26T16:24:00.821Z,9.90
2023-02-26T16:26:34.955Z,14.40
2023-02-26T16:29:07.708Z,28.40
2023-02-26T16:31:38.400Z,19.90
2023-02-26T16:34:32.012Z,27.60
2023-02-26T16:37:11.661Z,18.20
2023-02-26T16:39:44.427Z,13.20
2023-02-26T16:42:24.456Z,16.10
2023-02-26T16:45:02.210Z,12.40
2023-02-26T16:47:33.831Z,9.90
2023-02-26T16:50:03.232Z,12.80
2023-02-26T16:52:32.655Z,17.10
2023-02-26T16:55:04.523Z,23.60
2023-02-26T16:57:40.102Z,15.80
2023-02-26T17:00:30.005Z,17.50
2023-02-26T17:03:12.439Z,17.30
2023-02-26T17:05:51.461Z,12.60
2023-02-26T17:08:21.889Z,18.30
2023-02-26T17:11:00.504Z,20.00
2023-02-26T17:13:34.230Z,19.80
2023-02-26T17:16:04.528Z,12.20
2023-02-26T17:18:34.540Z,11.10
2023-02-26T17:21:07.228Z,8.10
2023-02-26T17:23:37.972Z,8.60
2023-02-26T17:26:07.257Z,8.20
2023-02-26T17:28:40.091Z,10.00
2023-02-26T17:31:09.953Z,9.50
2023-02-26T17:33:41.309Z,7.80
2023-02-26T17:36:14.926Z,7.70
2023-02-26T17:38:47.287Z,25.10
2023-02-26T17:41:19.448Z,15.00
2023-02-26T17:43:49.047Z,10.10
2023-02-26T17:46:17.844Z,7.80
2023-02-26T17:48:47.954Z,10.10
2023-02-26T17:51:17.677Z,8.80
2023-02-26T17:53:47.098Z,10.10
2023-02-26T17:56:21.713Z,15.70
2023-02-26T17:58:52.023Z,9.30
2023-02-26T18:01:21.577Z,9.40
2023-02-26T18:03:54.901Z,11.70
2023-02-26T18:06:24.953Z,9.40
2023-02-26T18:08:54.650Z,9.20
2023-02-26T18:11:26.316Z,9.40
2023-02-26T18:13:55.912Z,9.70
2023-02-26T18:16:33.642Z,9.00
2023-02-26T18:19:03.029Z,8.80
2023-02-26T18:21:33.464Z,8.90
2023-02-26T18:24:02.639Z,8.10
2023-02-26T18:26:32.607Z,9.60
2023-02-26T18:29:02.384Z,10.60
2023-02-26T18:31:35.642Z,8.10
2023-02-26T18:34:06.632Z,7.50
2023-02-26T18:36:38.303Z,7.70
2023-02-26T18:39:20.657Z,7.70
2023-02-26T18:41:51.081Z,7.10
2023-02-26T18:44:19.983Z,7.40
2023-02-26T18:46:49.319Z,7.60
2023-02-26T18:49:19.801Z,8.20
2023-02-26T18:51:48.914Z,9.40
2023-02-26T18:54:18.508Z,8.80
2023-02-26T18:56:47.605Z,9.80
2023-02-26T18:59:16.998Z,8.30
2023-02-26T19:01:48.392Z,15.20
2023-02-26T19:04:18.183Z,9.80
2023-02-26T19:06:50.977Z,7.50
2023-02-26T19:09:20.036Z,7.30
2023-02-26T19:11:49.034Z,8.40
2023-02-26T19:14:19.050Z,8.90
2023-02-26T19:16:48.453Z,10.90
2023-02-26T19:19:19.490Z,15.50
2023-02-26T19:21:48.992Z,12.10
2023-02-26T19:24:18.398Z,8.20
2023-02-26T19:26:47.318Z,6.90
2023-02-26T19:29:17.527Z,8.00
2023-02-26T19:31:46.937Z,8.70
2023-02-26T19:34:15.807Z,11.00
2023-02-26T19:36:48.560Z,16.40
2023-02-26T19:39:18.890Z,7.60
2023-02-26T19:41:49.569Z,7.60
2023-02-26T19:44:18.738Z,5.80
2023-02-26T19:46:48.546Z,6.80
2023-02-26T19:49:17.964Z,6.50
2023-02-26T19:51:46.965Z,6.00
2023-02-26T19:54:15.937Z,6.70
2023-02-26T19:56:44.826Z,6.50
2023-02-26T19:59:13.414Z,6.40
2023-02-26T20:01:44.062Z,7.30
2023-02-26T20:04:14.073Z,6.50
2023-02-26T20:06:44.078Z,7.70
2023-02-26T20:09:18.697Z,7.60
2023-02-26T20:11:47.695Z,10.70
2023-02-26T20:14:17.024Z,15.60
2023-02-26T20:16:47.226Z,11.70
2023-02-26T20:19:16.120Z,13.30
2023-02-26T20:21:47.045Z,11.30
2023-02-26T20:24:16.367Z,11.70
2023-02-26T20:26:45.866Z,11.00
2023-02-26T20:29:18.752Z,10.50
2023-02-26T20:31:50.261Z,8.80
2023-02-26T20:34:19.597Z,7.90
2023-02-26T20:36:51.025Z,7.70
2023-02-26T20:39:21.454Z,7.20
2023-02-26T20:41:51.186Z,7.40
2023-02-26T20:44:20.264Z,8.90
2023-02-26T20:46:49.692Z,17.20
2023-02-26T20:49:18.557Z,16.30
2023-02-26T20:51:50.732Z,8.70
2023-02-26T20:54:20.648Z,16.50
2023-02-26T20:56:50.675Z,12.40
2023-02-26T20:59:20.255Z,12.00
2023-02-26T21:01:54.169Z,7.50
2023-02-26T21:04:23.363Z,14.70
2023-02-26T21:06:52.351Z,14.00
2023-02-26T21:09:21.500Z,13.10
2023-02-26T21:11:52.631Z,17.70
2023-02-26T21:14:22.610Z,16.90
2023-02-26T21:16:54.262Z,17.10
2023-02-26T21:19:24.195Z,12.60
2023-02-26T21:21:53.277Z,19.30
2023-02-26T21:24:23.186Z,21.80
2023-02-26T21:26:53.202Z,15.80
2023-02-26T21:29:23.172Z,26.40
2023-02-26T21:31:54.007Z,14.20
2023-02-26T21:34:33.587Z,15.50
2023-02-26T21:37:03.932Z,14.70
2023-02-26T21:39:33.134Z,19.70
2023-02-26T21:42:04.078Z,12.20
2023-02-26T21:44:35.732Z,11.80
2023-02-26T21:47:04.809Z,21.50
2023-02-26T21:49:33.610Z,10.90
2023-02-26T21:52:11.405Z,8.70
2023-02-26T21:54:44.058Z,11.40
2023-02-26T21:57:13.065Z,8.00
2023-02-26T21:59:42.259Z,6.60
2023-02-26T22:02:12.017Z,8.10
2023-02-26T22:04:42.394Z,6.70
2023-02-26T22:07:11.799Z,6.70
2023-02-26T22:09:40.405Z,7.00
2023-02-26T22:12:08.889Z,7.10
2023-02-26T22:14:37.645Z,6.90
2023-02-26T22:17:06.561Z,6.90
2023-02-26T22:19:37.177Z,7.20
2023-02-26T22:22:05.782Z,7.80
2023-02-26T22:24:35.358Z,6.80
2023-02-26T22:27:05.477Z,7.70
2023-02-26T22:29:34.382Z,8.70
2023-02-26T22:32:03.155Z,7.00
2023-02-26T22:34:34.196Z,7.00
2023-02-26T22:37:02.786Z,7.20
2023-02-26T22:39:31.474Z,6.50
2023-02-26T22:42:20.039Z,6.90
2023-02-26T22:44:48.810Z,7.30
2023-02-26T22:47:17.818Z,7.50
2023-02-26T22:49:46.797Z,7.40
2023-02-26T22:52:17.733Z,7.10
2023-02-26T22:54:48.081Z,8.00
2023-02-26T22:57:16.947Z,7.40
2023-02-26T22:59:45.736Z,7.00
2023-02-26T23:02:14.733Z,6.90
2023-02-26T23:04:44.494Z,7.30
2023-02-26T23:07:13.227Z,8.00
2023-02-26T23:09:42.550Z,8.60
2023-02-26T23:12:11.453Z,8.40
2023-02-26T23:14:40.629Z,8.70
2023-02-26T23:17:11.498Z,7.10
2023-02-26T23:19:41.568Z,8.90
2023-02-26T23:22:10.561Z,8.20
2023-02-26T23:24:40.820Z,13.80
2023-02-26T23:27:09.572Z,15.00
2023-02-26T23:29:45.859Z,7.80
2023-02-26T23:32:15.547Z,8.20
2023-02-26T23:34:45.050Z,13.00
2023-02-26T23:37:14.244Z,8.00
2023-02-26T23:39:42.935Z,8.30
2023-02-26T23:42:12.065Z,9.40
2023-02-26T23:44:41.117Z,9.30
2023-02-26T23:47:09.803Z,8.80
2023-02-26T23:49:40.225Z,8.10
2023-02-26T23:52:09.637Z,8.70
2023-02-26T23:54:40.070Z,8.10
2023-02-26T23:57:09.399Z,8.90
2023-02-26T23:59:39.910Z,8.50
